Time;durP1;ratioP1;P1;durP2;ratioP2;P2;SDS_P1;SDS_P2;PMS_P1;PMS_P2;Temp;Humidity;BMP_temperature;BMP_pressure;BME280_temperature;BME280_humidity;BME280_pressure;Samples;Min_cycle;Max_cycle;Signal;HPM_P1;HPM_P2
2023/10/21 00:02:08;;;;;;;2.05;0.22;;;;;;;15.24;100.00;98928.88;5089521;28;20031;-68
2023/10/21 00:04:34;;;;;;;0.55;0.22;;;;;;;15.23;100.00;98943.00;5092136;28;20032;-68
2023/10/21 00:06:59;;;;;;;2.97;0.43;;;;;;;15.20;100.00;98951.28;5088278;28;20388;-68
2023/10/21 00:09:25;;;;;;;2.15;0.30;;;;;;;15.18;100.00;98974.31;5086943;28;20028;-67
2023/10/21 00:11:51;;;;;;;1.60;0.30;;;;;;;15.17;100.00;98980.56;5087466;28;20028;-68
2023/10/21 00:14:17;;;;;;;0.90;0.30;;;;;;;15.14;100.00;98988.84;5092382;28;20501;-68
2023/10/21 00:16:43;;;;;;;0.80;0.10;;;;;;;15.17;100.00;98978.75;5082098;28;20129;-67
2023/10/21 00:19:10;;;;;;;1.13;0.10;;;;;;;15.18;100.00;98963.81;5082530;28;20484;-68
2023/10/21 00:21:36;;;;;;;4.30;0.10;;;;;;;15.17;100.00;98967.44;5088383;28;20054;-68
2023/10/21 00:24:03;;;;;;;0.90;0.10;;;;;;;15.17;100.00;98970.06;5074042;28;20147;-68
2023/10/21 00:26:28;;;;;;;1.92;0.08;;;;;;;15.17;100.00;98972.69;5085975;28;20040;-68
2023/10/21 00:28:54;;;;;;;1.35;0.20;;;;;;;15.11;100.00;98984.84;5089596;28;20085;-67
2023/10/21 00:31:19;;;;;;;0.35;0.10;;;;;;;15.12;100.00;98990.91;5088842;28;20128;-68
2023/10/21 00:33:44;;;;;;;1.17;0.10;;;;;;;15.09;100.00;98996.56;5084936;28;20113;-68
2023/10/21 00:36:10;;;;;;;1.33;0.10;;;;;;;15.12;100.00;99001.41;5091585;28;20164;-68
2023/10/21 00:38:35;;;;;;;0.25;0.10;;;;;;;15.13;100.00;98989.88;5089518;28;20032;-68
2023/10/21 00:41:01;;;;;;;1.17;0.10;;;;;;;15.03;100.00;99000.03;5091361;28;20030;-67
2023/10/21 00:43:36;;;;;;;1.20;0.10;;;;;;;15.03;100.00;99013.13;5088035;28;20031;-68
2023/10/21 00:46:08;;;;;;;;;;;;;;;15.03;100.00;99013.94;5095766;28;20024;-68
2023/10/21 00:48:33;;;;;;;0.70;0.10;;;;;;;15.04;100.00;99010.31;5086597;28;20271;-68
2023/10/21 00:50:59;;;;;;;0.90;0.10;;;;;;;14.99;100.00;99002.25;5089710;28;20060;-68
2023/10/21 00:53:25;;;;;;;0.82;0.05;;;;;;;14.96;100.00;99012.34;5092217;28;20032;-68
2023/10/21 00:55:51;;;;;;;1.65;0.10;;;;;;;14.97;100.00;99006.91;5087660;28;20461;-68
2023/10/21 00:58:19;;;;;;;1.95;0.00;;;;;;;14.99;100.00;99007.50;5089771;28;20063;-67
2023/10/21 01:00:44;;;;;;;2.80;0.10;;;;;;;14.99;100.00;99009.31;5093976;28;20035;-67
2023/10/21 01:03:10;;;;;;;0.20;0.10;;;;;;;15.00;100.00;99016.97;5088258;28;20020;-67
2023/10/21 01:05:36;;;;;;;0.73;0.10;;;;;;;14.94;100.00;99000.25;5090049;28;20074;-68
2023/10/21 01:08:02;;;;;;;0.85;0.30;;;;;;;14.91;100.00;99003.28;5092292;28;20024;-68
2023/10/21 01:10:28;;;;;;;1.85;0.10;;;;;;;14.92;100.00;99004.09;5080914;28;20029;-68
2023/10/21 01:12:54;;;;;;;0.15;0.00;;;;;;;14.94;100.00;98999.44;5095581;28;20065;-68
2023/10/21 01:15:19;;;;;;;0.93;0.10;;;;;;;14.90;100.00;99003.50;5088789;28;20368;-68
2023/10/21 01:17:49;;;;;;;0.30;0.00;;;;;;;14.86;100.00;99002.31;5086097;28;20141;-68
2023/10/21 01:20:16;;;;;;;0.20;0.00;;;;;;;14.91;100.00;99016.41;5091093;28;20077;-67
2023/10/21 01:22:42;;;;;;;0.40;0.10;;;;;;;14.96;100.00;99028.09;5087706;28;20032;-67
2023/10/21 01:25:08;;;;;;;0.40;0.00;;;;;;;14.99;100.00;99025.06;5081573;28;20032;-67
2023/10/21 01:27:33;;;;;;;0.77;0.03;;;;;;;14.94;100.00;99018.63;5086027;28;20044;-67
2023/10/21 01:29:59;;;;;;;0.82;0.08;;;;;;;14.90;100.00;99012.16;5088034;28;20032;-67
2023/10/21 01:32:25;;;;;;;0.35;0.00;;;;;;;14.88;100.00;99005.53;5094378;28;20028;-68
2023/10/21 01:34:51;;;;;;;0.95;0.10;;;;;;;14.84;100.00;99002.50;5089496;28;20506;-67
2023/10/21 01:37:16;;;;;;;0.30;0.03;;;;;;;14.83;100.00;98995.66;5066611;28;20044;-68
2023/10/21 01:39:42;;;;;;;3.03;0.00;;;;;;;14.80;100.00;98992.63;5093740;28;20430;-68
2023/10/21 01:42:08;;;;;;;0.30;0.00;;;;;;;14.78;100.00;98989.41;5060786;28;20111;-68
2023/10/21 01:44:34;;;;;;;0.47;0.10;;;;;;;14.83;100.00;99002.72;5083395;28;20151;-68
2023/10/21 01:47:00;;;;;;;0.08;0.00;;;;;;;14.81;100.00;99010.78;5090417;28;20027;-68
2023/10/21 01:49:25;;;;;;;0.20;0.00;;;;;;;14.78;100.00;99011.19;5079382;28;20037;-68
2023/10/21 01:51:51;;;;;;;0.20;0.00;;;;;;;14.79;100.00;99004.94;5083424;28;20024;-68
2023/10/21 01:54:16;;;;;;;0.10;0.00;;;;;;;14.70;100.00;99008.00;5085566;28;20136;-68
2023/10/21 01:56:42;;;;;;;0.20;0.00;;;;;;;14.66;100.00;98997.13;5079191;28;20035;-68
2023/10/21 01:59:08;;;;;;;0.10;0.00;;;;;;;14.64;100.00;99000.97;5088312;28;20032;-68
2023/10/21 02:01:34;;;;;;;1.15;0.10;;;;;;;14.70;100.00;99014.03;5082769;28;20040;-68
2023/10/21 02:04:00;;;;;;;1.75;0.00;;;;;;;14.71;100.00;99014.84;5089302;28;20032;-68
2023/10/21 02:06:26;;;;;;;1.77;0.10;;;;;;;14.69;100.00;99011.63;5086635;28;20051;-68
2023/10/21 02:08:53;;;;;;;1.20;0.03;;;;;;;14.70;100.00;99008.78;5084972;28;20027;-68
2023/10/21 02:11:22;;;;;;;2.70;0.08;;;;;;;14.69;100.00;99017.66;5076911;28;20511;-68
2023/10/21 02:13:47;;;;;;;2.30;0.00;;;;;;;14.68;100.00;99016.06;5083759;28;20042;-68
2023/10/21 02:16:13;;;;;;;0.95;0.10;;;;;;;14.66;100.00;99019.91;5088477;28;20119;-68
2023/10/21 02:18:39;;;;;;;0.65;0.28;;;;;;;14.67;100.00;99024.13;5090067;28;20042;-68
2023/10/21 02:21:05;;;;;;;1.35;0.17;;;;;;;14.70;100.00;99028.97;5082736;28;20428;-68
2023/10/21 02:23:31;;;;;;;0.10;0.00;;;;;;;14.70;100.00;99023.72;5089566;28;20036;-68
2023/10/21 02:26:03;;;;;;;2.50;0.00;;;;;;;14.69;100.00;99022.91;5085905;28;20054;-68
2023/10/21 02:28:29;;;;;;;0.28;0.00;;;;;;;14.68;100.00;99039.66;5084824;28;20036;-68
2023/10/21 02:30:55;;;;;;;0.52;0.00;;;;;;;14.70;100.00;99044.69;5089511;28;20027;-68
2023/10/21 02:33:23;;;;;;;0.40;0.00;;;;;;;14.68;100.00;99044.91;5087517;28;20080;-69
2023/10/21 02:35:55;;;;;;;0.10;0.00;;;;;;;14.66;100.00;99052.16;5082427;28;20033;-68
2023/10/21 02:38:25;;;;;;;1.33;0.10;;;;;;;14.72;100.00;99047.91;5088717;28;20024;-68
2023/10/21 02:40:50;;;;;;;0.10;0.00;;;;;;;14.76;100.00;99064.84;5077117;28;20035;-68
2023/10/21 02:43:16;;;;;;;2.00;0.00;;;;;;;14.74;100.00;99065.06;5089059;28;20107;-68
2023/10/21 02:45:42;;;;;;;0.00;0.00;;;;;;;14.70;100.00;99060.41;5087455;28;20470;-68
2023/10/21 02:48:08;;;;;;;0.10;0.00;;;;;;;14.66;100.00;99062.66;5085600;28;20120;-68
2023/10/21 02:50:34;;;;;;;0.08;0.00;;;;;;;14.60;100.00;99073.97;5084561;28;20082;-68
2023/10/21 02:52:59;;;;;;;0.20;0.00;;;;;;;14.60;100.00;99081.84;5082983;28;20093;-68
2023/10/21 02:55:28;;;;;;;1.70;0.00;;;;;;;14.67;100.00;99082.59;5065360;28;20108;-68
2023/10/21 02:57:53;;;;;;;0.10;0.00;;;;;;;14.71;100.00;99080.38;5090328;28;20024;-68
2023/10/21 03:00:21;;;;;;;0.45;0.10;;;;;;;14.64;100.00;99085.66;5083458;28;20188;-68
2023/10/21 03:02:48;;;;;;;0.00;0.00;;;;;;;14.69;100.00;99085.03;5087007;28;20085;-68
2023/10/21 03:05:15;;;;;;;0.10;0.00;;;;;;;14.70;100.00;99095.31;5085718;28;20028;-68
2023/10/21 03:07:41;;;;;;;0.10;0.00;;;;;;;14.69;100.00;99101.56;5091674;28;20405;-68
2023/10/21 03:10:06;;;;;;;0.20;0.00;;;;;;;14.71;100.00;99112.66;5082912;28;20033;-68
2023/10/21 03:12:32;;;;;;;1.10;0.00;;;;;;;14.73;100.00;99115.06;5089578;28;20036;-68
2023/10/21 03:14:59;;;;;;;0.00;0.00;;;;;;;14.76;100.00;99122.53;5065961;28;20032;-68
2023/10/21 03:17:26;;;;;;;0.10;0.00;;;;;;;14.75;100.00;99120.91;5090463;28;20043;-68
2023/10/21 03:19:54;;;;;;;0.10;0.00;;;;;;;14.76;100.00;99115.47;5082904;28;20021;-68
2023/10/21 03:22:20;;;;;;;0.13;0.00;;;;;;;14.76;100.00;99119.91;5088691;28;20028;-68
2023/10/21 03:24:45;;;;;;;1.45;0.00;;;;;;;14.75;100.00;99119.09;5084614;28;20463;-69
2023/10/21 03:27:13;;;;;;;0.20;0.00;;;;;;;14.79;100.00;99117.69;5081994;28;21058;-68
2023/10/21 03:29:39;;;;;;;0.10;0.00;;;;;;;14.82;100.00;99116.47;5087032;28;20036;-68
2023/10/21 03:32:05;;;;;;;0.00;0.00;;;;;;;14.79;100.00;99112.44;5082655;28;20060;-69
2023/10/21 03:34:32;;;;;;;0.00;0.00;;;;;;;14.76;100.00;99120.72;5081279;28;20032;-68
2023/10/21 03:36:59;;;;;;;0.45;0.00;;;;;;;14.75;100.00;99119.09;5081646;28;20503;-68
2023/10/21 03:39:26;;;;;;;0.98;0.00;;;;;;;14.81;100.00;99126.16;5084935;28;20157;-68
2023/10/21 03:41:52;;;;;;;1.05;0.00;;;;;;;14.77;100.00;99119.69;5089390;28;20533;-68
2023/10/21 03:44:17;;;;;;;0.10;0.00;;;;;;;14.72;100.00;99127.38;5089229;28;20123;-68
2023/10/21 03:46:43;;;;;;;3.50;0.00;;;;;;;14.70;100.00;99132.00;5082331;28;20028;-68
2023/10/21 03:49:08;;;;;;;0.80;0.00;;;;;;;14.72;100.00;99132.63;5085700;28;20046;-68
2023/10/21 03:51:33;;;;;;;0.20;0.00;;;;;;;14.76;100.00;99138.25;5091273;28;20043;-68
2023/10/21 03:53:59;;;;;;;0.00;0.00;;;;;;;14.77;100.00;99140.69;5082986;28;20028;-68
2023/10/21 03:56:25;;;;;;;0.00;0.00;;;;;;;14.78;100.00;99142.28;5087585;28;20038;-67
2023/10/21 03:58:50;;;;;;;2.05;0.10;;;;;;;14.74;100.00;99151.56;5089365;28;20035;-68
2023/10/21 04:01:16;;;;;;;0.95;0.10;;;;;;;14.71;100.00;99154.59;5068461;28;20135;-68
2023/10/21 04:03:41;;;;;;;0.10;0.00;;;;;;;14.73;100.00;99146.53;5090386;28;20499;-68
2023/10/21 04:06:11;;;;;;;0.00;0.00;;;;;;;14.68;100.00;99152.38;5085270;28;20060;-68
2023/10/21 04:08:37;;;;;;;0.00;0.00;;;;;;;14.64;100.00;99153.81;5087135;28;20040;-68
2023/10/21 04:11:02;;;;;;;4.05;0.10;;;;;;;14.54;100.00;99151.59;5089812;28;20078;-68
2023/10/21 04:13:28;;;;;;;0.15;0.03;;;;;;;14.56;100.00;99151.41;5056693;28;20138;-68
2023/10/21 04:15:54;;;;;;;0.68;0.10;;;;;;;14.59;100.00;99154.41;5085764;28;20434;-68
2023/10/21 04:18:19;;;;;;;2.08;0.30;;;;;;;14.62;100.00;99171.56;5094369;28;20127;-68
2023/10/21 04:20:45;;;;;;;1.30;0.10;;;;;;;14.64;100.00;99179.22;5088500;28;20062;-68
2023/10/21 04:23:12;;;;;;;0.30;0.00;;;;;;;14.64;100.00;99177.41;5091659;28;20028;-68
2023/10/21 04:25:37;;;;;;;0.30;0.00;;;;;;;14.66;100.00;99171.94;5087516;28;20028;-68
2023/10/21 04:28:03;;;;;;;2.03;0.00;;;;;;;14.68;100.00;99175.97;5086487;28;20024;-68
2023/10/21 04:30:29;;;;;;;2.63;0.10;;;;;;;14.68;100.00;99175.97;5093398;28;20024;-68
2023/10/21 04:32:55;;;;;;;4.50;0.00;;;;;;;14.72;100.00;99169.31;5085394;28;20028;-68
2023/10/21 04:35:21;;;;;;;0.30;0.00;;;;;;;14.74;100.00;99171.72;5085607;28;20036;-68
2023/10/21 04:37:46;;;;;;;0.10;0.00;;;;;;;14.73;100.00;99165.69;5087614;28;20020;-68
2023/10/21 04:40:13;;;;;;;0.75;0.00;;;;;;;14.75;100.00;99171.53;5086383;28;20040;-68
2023/10/21 04:42:39;;;;;;;1.45;0.00;;;;;;;14.74;100.00;99167.31;5085937;28;20549;-68
2023/10/21 04:45:09;;;;;;;0.95;0.00;;;;;;;14.76;100.00;99167.91;5088808;28;20123;-68
2023/10/21 04:47:34;;;;;;;1.58;0.08;;;;;;;14.75;100.00;99174.16;5071387;28;20047;-68
2023/10/21 04:50:00;;;;;;;0.57;0.00;;;;;;;14.75;100.00;99171.53;5086283;28;20031;-68
2023/10/21 04:52:25;;;;;;;1.13;0.03;;;;;;;14.70;100.00;99178.38;5071173;28;20043;-68
2023/10/21 04:54:50;;;;;;;0.28;0.00;;;;;;;14.69;100.00;99185.44;5090105;28;20031;-67
2023/10/21 04:57:19;;;;;;;0.50;0.08;;;;;;;14.70;100.00;99184.44;5090111;28;20067;-68
2023/10/21 04:59:44;;;;;;;2.50;0.10;;;;;;;14.68;100.00;99189.06;5088956;28;20479;-68
2023/10/21 05:02:10;;;;;;;1.40;0.00;;;;;;;14.69;100.00;99190.69;5082441;28;20055;-68
2023/10/21 05:04:36;;;;;;;1.55;0.00;;;;;;;14.68;100.00;99194.31;5084656;28;21838;-68
2023/10/21 05:07:05;;;;;;;3.60;0.00;;;;;;;14.71;100.00;99193.91;5088547;28;20115;-68
2023/10/21 05:09:31;;;;;;;2.75;0.10;;;;;;;14.66;100.00;99187.66;5090655;28;20084;-68
2023/10/21 05:11:57;;;;;;;0.32;0.00;;;;;;;14.62;100.00;99195.16;5070659;28;20038;-68
2023/10/21 05:14:22;;;;;;;2.22;0.10;;;;;;;14.60;100.00;99207.66;5087661;28;20520;-68
2023/10/21 05:16:48;;;;;;;4.03;0.00;;;;;;;14.64;100.00;99223.78;5085088;28;20032;-68
2023/10/21 05:19:13;;;;;;;0.00;0.00;;;;;;;14.59;100.00;99213.91;5092870;28;20028;-68
2023/10/21 05:21:39;;;;;;;1.38;0.00;;;;;;;14.64;100.00;99219.34;5086723;28;20470;-68
2023/10/21 05:24:04;;;;;;;2.08;0.30;;;;;;;14.67;100.00;99218.91;5060898;28;20363;-68
2023/10/21 05:26:30;;;;;;;0.75;0.10;;;;;;;14.69;100.00;99231.81;5082028;28;20028;-68
2023/10/21 05:28:57;;;;;;;3.53;0.65;;;;;;;14.73;100.00;99238.28;5096000;28;20039;-68
2023/10/21 05:31:23;;;;;;;2.25;0.40;;;;;;;14.68;100.00;99236.25;5087293;28;20731;-68
2023/10/21 05:33:49;;;;;;;2.13;0.30;;;;;;;14.60;100.00;99234.66;5092521;28;20024;-68
2023/10/21 05:36:14;;;;;;;3.50;0.20;;;;;;;14.60;100.00;99233.84;5094707;28;20035;-68
2023/10/21 05:38:40;;;;;;;1.30;0.15;;;;;;;14.61;100.00;99240.72;5090610;28;20028;-68
2023/10/21 05:41:05;;;;;;;0.55;0.05;;;;;;;14.68;100.00;99240.69;5089574;28;20023;-68
2023/10/21 05:43:31;;;;;;;0.70;0.13;;;;;;;14.67;100.00;99234.66;5085497;28;20032;-68
2023/10/21 05:45:56;;;;;;;1.00;0.20;;;;;;;14.70;100.00;99239.50;5088864;28;20065;-68
2023/10/21 05:48:22;;;;;;;0.88;0.10;;;;;;;14.71;100.00;99254.22;5089814;28;20047;-67
2023/10/21 05:50:48;;;;;;;0.90;0.28;;;;;;;14.73;100.00;99254.81;5087561;28;20039;-68
2023/10/21 05:53:13;;;;;;;0.30;0.10;;;;;;;14.65;100.00;99255.00;5090089;28;20032;-68
2023/10/21 05:55:41;;;;;;;0.40;0.20;;;;;;;14.62;100.00;99259.88;5068291;28;20039;-68
2023/10/21 05:58:08;;;;;;;2.58;0.10;;;;;;;14.63;100.00;99258.88;5090873;28;20391;-68
2023/10/21 06:00:33;;;;;;;1.30;0.10;;;;;;;14.63;100.00;99254.44;5074862;28;20050;-67
2023/10/21 06:02:59;;;;;;;0.35;0.08;;;;;;;14.67;100.00;99260.84;5087614;28;20028;-67
2023/10/21 06:05:24;;;;;;;1.75;0.10;;;;;;;14.68;100.00;99257.22;5083556;28;20032;-68
2023/10/21 06:07:49;;;;;;;0.57;0.10;;;;;;;14.68;100.00;99265.09;5094172;28;20028;-68
2023/10/21 06:10:16;;;;;;;0.20;0.03;;;;;;;14.74;100.00;99258.25;5085418;28;20484;-67
2023/10/21 06:12:43;;;;;;;1.33;0.10;;;;;;;14.82;100.00;99263.31;5083461;28;22258;-68
2023/10/21 06:15:09;;;;;;;1.45;0.03;;;;;;;14.85;100.00;99266.34;5091442;28;20356;-68
2023/10/21 06:17:34;;;;;;;2.13;0.10;;;;;;;14.89;100.00;99274.59;5092057;28;20540;-68
2023/10/21 06:20:00;;;;;;;0.40;0.00;;;;;;;14.86;100.00;99275.00;5088166;28;20036;-64
2023/10/21 06:22:26;;;;;;;3.30;0.10;;;;;;;14.86;100.00;99267.13;5084746;28;20038;-65
2023/10/21 06:24:51;;;;;;;1.00;0.10;;;;;;;14.87;100.00;99274.81;5089720;28;20379;-65
2023/10/21 06:27:16;;;;;;;0.68;0.10;;;;;;;14.89;100.00;99275.41;5079682;28;20033;-66
2023/10/21 06:29:42;;;;;;;0.60;0.10;;;;;;;14.97;100.00;99281.47;5088856;28;20467;-66
2023/10/21 06:32:09;;;;;;;0.20;0.00;;;;;;;14.96;100.00;99272.00;5085852;28;20040;-66
2023/10/21 06:34:35;;;;;;;0.20;0.00;;;;;;;14.96;100.00;99280.66;5082659;28;20492;-66
2023/10/21 06:37:01;;;;;;;0.40;0.00;;;;;;;14.96;100.00;99287.72;5087461;28;20048;-67
2023/10/21 06:39:27;;;;;;;1.65;0.00;;;;;;;14.98;100.00;99277.84;5092292;28;20085;-66
2023/10/21 06:41:52;;;;;;;7.72;0.10;;;;;;;14.97;100.00;99279.66;5074650;28;20021;-66
2023/10/21 06:44:18;;;;;;;0.85;0.03;;;;;;;14.96;100.00;99280.66;5094860;28;20060;-66
2023/10/21 06:46:44;;;;;;;0.45;0.08;;;;;;;14.99;100.00;99300.44;5084088;28;20142;-66
2023/10/21 06:49:09;;;;;;;0.98;0.10;;;;;;;15.00;100.00;99302.06;5091050;28;20059;-66
2023/10/21 06:51:38;;;;;;;5.78;0.20;;;;;;;14.96;100.00;99311.34;5084500;28;20039;-66
2023/10/21 06:54:05;;;;;;;1.75;0.10;;;;;;;14.97;100.00;99316.38;5082491;28;20122;-65
2023/10/21 06:56:31;;;;;;;1.20;0.10;;;;;;;15.00;100.00;99312.56;5078089;28;20384;-66
2023/10/21 06:58:57;;;;;;;0.70;0.00;;;;;;;14.98;100.00;99318.00;5078284;28;20028;-65
2023/10/21 07:01:22;;;;;;;0.50;0.00;;;;;;;14.98;100.00;99315.38;5087705;28;20024;-65
2023/10/21 07:03:49;;;;;;;1.40;0.00;;;;;;;15.01;100.00;99328.09;5083381;28;20031;-65
2023/10/21 07:06:16;;;;;;;0.65;0.05;;;;;;;15.00;100.00;99326.47;5081727;28;20491;-65
2023/10/21 07:08:42;;;;;;;2.75;0.08;;;;;;;14.98;100.00;99340.78;5060198;28;20953;-65
2023/10/21 07:11:07;;;;;;;0.70;0.00;;;;;;;15.03;100.00;99339.19;5074784;28;20078;-65
2023/10/21 07:13:33;;;;;;;0.77;0.10;;;;;;;15.06;100.00;99344.03;5078714;28;20028;-65
2023/10/21 07:16:10;;;;;;;2.15;0.15;;;;;;;15.08;100.00;99343.84;5079009;28;20111;-65
2023/10/21 07:18:36;;;;;;;1.95;0.13;;;;;;;15.11;100.00;99359.19;5078916;28;20162;-65
2023/10/21 07:21:04;;;;;;;1.25;0.20;;;;;;;15.11;100.00;99359.19;5073474;28;20129;-65
2023/10/21 07:23:30;;;;;;;3.58;0.20;;;;;;;15.14;100.00;99362.19;5056123;28;20020;-64
2023/10/21 07:25:55;;;;;;;0.50;0.20;;;;;;;15.17;100.00;99356.53;5084924;28;20051;-65
2023/10/21 07:28:21;;;;;;;0.77;0.05;;;;;;;15.25;100.00;99363.41;5065055;28;20031;-65
2023/10/21 07:30:46;;;;;;;0.47;0.08;;;;;;;15.27;100.00;99361.38;5081469;28;20039;-65
2023/10/21 07:33:13;;;;;;;2.95;0.00;;;;;;;15.30;100.00;99363.59;5082380;28;20025;-64
2023/10/21 07:35:39;;;;;;;0.17;0.00;;;;;;;15.31;100.00;99364.41;5080961;28;20115;-65
2023/10/21 07:38:05;;;;;;;0.55;0.00;;;;;;;15.36;100.00;99381.19;5080360;28;20123;-65
2023/10/21 07:40:30;;;;;;;0.17;0.03;;;;;;;15.41;100.00;99383.19;5083854;28;20047;-65
2023/10/21 07:42:57;;;;;;;0.57;0.00;;;;;;;15.50;100.00;99385.44;5082930;28;20034;-65
2023/10/21 07:45:22;;;;;;;0.10;0.00;;;;;;;15.57;100.00;99394.13;5081993;28;20115;-65
2023/10/21 07:47:48;;;;;;;0.80;0.00;;;;;;;15.59;100.00;99397.38;5080597;28;20123;-65
2023/10/21 07:50:13;;;;;;;0.20;0.00;;;;;;;15.63;100.00;99396.94;5081631;28;20030;-65
2023/10/21 07:52:39;;;;;;;0.65;0.00;;;;;;;15.66;100.00;99396.53;5086814;28;20036;-65
2023/10/21 07:55:05;;;;;;;0.80;0.00;;;;;;;15.67;100.00;99404.22;5078886;28;20111;-65
2023/10/21 07:57:31;;;;;;;0.85;0.00;;;;;;;15.73;100.00;99406.03;5078020;28;20032;-65
2023/10/21 08:00:00;;;;;;;0.90;0.08;;;;;;;15.81;100.00;99407.63;5086754;28;20032;-65
2023/10/21 08:02:26;;;;;;;0.95;0.10;;;;;;;15.89;100.00;99410.06;5083498;28;20078;-65
2023/10/21 08:04:52;;;;;;;0.20;0.10;;;;;;;15.89;100.00;99413.50;5081800;28;20408;-65
2023/10/21 08:07:18;;;;;;;3.22;0.20;;;;;;;15.95;100.00;99406.63;5083941;28;20035;-65
2023/10/21 08:09:44;;;;;;;2.45;0.40;;;;;;;15.99;100.00;99412.28;5084839;28;20169;-66
2023/10/21 08:12:09;;;;;;;1.15;0.30;;;;;;;16.02;100.00;99412.66;5083120;28;20550;-65
2023/10/21 08:14:36;;;;;;;1.13;0.13;;;;;;;15.98;100.00;99421.97;5084352;28;20495;-65
2023/10/21 08:17:04;;;;;;;2.28;0.20;;;;;;;15.98;100.00;99427.22;5084726;28;20533;-65
2023/10/21 08:19:30;;;;;;;0.63;0.15;;;;;;;15.97;100.00;99425.59;5083718;28;20047;-65
2023/10/21 08:22:00;;;;;;;0.50;0.10;;;;;;;16.01;100.00;99410.25;5087150;28;20441;-64
2023/10/21 08:24:26;;;;;;;4.75;0.38;;;;;;;16.05;100.00;99406.19;5082074;28;20057;-65
2023/10/21 08:26:52;;;;;;;4.50;0.75;;;;;;;16.14;100.00;99402.31;5086868;28;20547;-65
2023/10/21 08:29:17;;;;;;;1.13;0.20;;;;;;;16.23;100.00;99407.16;5085368;28;20066;-65
2023/10/21 08:31:43;;;;;;;0.50;0.13;;;;;;;16.27;100.00;99412.78;5087060;28;20063;-65
2023/10/21 08:34:14;;;;;;;0.88;0.00;;;;;;;16.29;100.00;99404.72;5085431;28;20040;-65
2023/10/21 08:36:41;;;;;;;0.45;0.00;;;;;;;16.32;100.00;99401.66;5083835;28;20047;-65
2023/10/21 08:39:07;;;;;;;0.75;0.10;;;;;;;16.37;100.00;99409.75;5086374;28;20027;-65
2023/10/21 08:41:42;;;;;;;2.72;0.10;;;;;;;16.51;100.00;99417.38;5084459;28;20063;-66
2023/10/21 08:44:08;;;;;;;1.77;0.10;;;;;;;16.56;100.00;99409.66;5089470;28;20471;-65
2023/10/21 08:46:35;;;;;;;1.60;0.30;;;;;;;16.57;100.00;99415.72;5085214;28;20054;-65
2023/10/21 08:49:05;;;;;;;2.78;0.35;;;;;;;16.57;100.00;99415.72;5082571;28;20048;-65
2023/10/21 08:51:32;;;;;;;1.17;0.10;;;;;;;16.59;100.00;99416.31;5085693;28;20039;-65
2023/10/21 08:54:03;;;;;;;0.68;0.10;;;;;;;16.62;100.00;99420.34;5088824;28;20040;-65
2023/10/21 08:56:29;;;;;;;0.52;0.10;;;;;;;16.61;100.00;99432.69;5086419;28;20081;-65
2023/10/21 08:58:55;;;;;;;1.20;0.10;;;;;;;16.78;100.00;99430.44;5088930;28;20042;-65
2023/10/21 09:01:22;;;;;;;0.25;0.10;;;;;;;16.84;100.00;99425.16;5087808;28;20427;-65
2023/10/21 09:03:49;;;;;;;0.40;0.05;;;;;;;16.83;100.00;99428.78;5084671;28;20180;-65
2023/10/21 09:06:17;;;;;;;1.05;0.10;;;;;;;16.90;100.00;99418.25;5089021;28;20028;-65
2023/10/21 09:08:44;;;;;;;0.90;0.10;;;;;;;16.95;100.00;99422.88;5088421;28;20685;-65
2023/10/21 09:11:13;;;;;;;0.20;0.10;;;;;;;17.03;100.00;99410.25;5089919;28;20035;-65
2023/10/21 09:13:40;;;;;;;2.13;0.00;;;;;;;17.00;100.00;99409.88;5087096;28;20039;-65
2023/10/21 09:16:23;;;;;;;1.50;0.20;;;;;;;16.99;100.00;99413.53;5085171;28;20024;-65
2023/10/21 09:18:56;;;;;;;1.33;0.10;;;;;;;17.02;100.00;99413.09;5089552;28;20032;-65
2023/10/21 09:21:37;;;;;;;1.02;0.00;;;;;;;17.12;100.00;99418.69;5081829;28;20050;-65
2023/10/21 09:24:06;;;;;;;0.30;0.10;;;;;;;17.17;100.00;99421.50;5082656;28;20046;-66
2023/10/21 09:26:33;;;;;;;0.70;0.03;;;;;;;17.22;100.00;99427.75;5082014;28;20513;-66
2023/10/21 09:29:06;;;;;;;3.33;0.30;;;;;;;17.35;100.00;99429.50;5083267;28;20035;-65
2023/10/21 09:31:49;;;;;;;0.08;0.00;;;;;;;17.40;100.00;99434.94;5085871;28;20038;-65
2023/10/21 09:34:27;;;;;;;2.03;0.10;;;;;;;17.46;100.00;99436.72;5088491;28;20024;-65
2023/10/21 09:36:54;;;;;;;0.85;0.10;;;;;;;17.50;100.00;99445.78;5082318;28;20056;-65
2023/10/21 09:39:21;;;;;;;1.85;0.10;;;;;;;17.54;100.00;99449.59;5084140;28;20048;-66
2023/10/21 09:41:50;;;;;;;1.65;0.08;;;;;;;17.77;100.00;99437.69;5081419;28;20020;-66
2023/10/21 09:44:16;;;;;;;2.03;0.32;;;;;;;17.76;100.00;99442.16;5088176;28;20028;-66
2023/10/21 09:46:46;;;;;;;1.10;0.10;;;;;;;17.76;100.00;99439.53;5086268;28;20046;-66
2023/10/21 09:49:16;;;;;;;3.13;0.10;;;;;;;17.82;100.00;99435.22;5066440;28;20051;-66
2023/10/21 09:52:18;;;;;;;1.73;0.15;;;;;;;17.83;100.00;99440.28;5086306;28;20060;-66
2023/10/21 09:54:47;;;;;;;1.77;0.10;;;;;;;17.97;100.00;99440.94;5074815;28;20044;-66
2023/10/21 09:57:13;;;;;;;0.80;0.10;;;;;;;17.89;100.00;99454.44;5085050;28;20420;-66
2023/10/21 09:59:40;;;;;;;0.80;0.10;;;;;;;17.94;100.00;99464.31;5086785;28;20046;-66
2023/10/21 10:02:09;;;;;;;3.92;0.10;;;;;;;17.84;100.00;99459.53;5064808;28;20029;-65
2023/10/21 10:04:35;;;;;;;1.42;0.10;;;;;;;17.86;100.00;99452.22;5086892;28;20455;-65
2023/10/21 10:07:06;;;;;;;2.90;0.25;;;;;;;17.87;100.00;99441.47;5086666;28;20059;-65
2023/10/21 10:09:36;;;;;;;1.35;0.10;;;;;;;17.98;100.00;99439.91;5086823;28;20394;-65
2023/10/21 10:12:08;;;;;;;2.55;0.03;;;;;;;17.99;100.00;99433.63;5067437;28;20035;-65
2023/10/21 10:14:34;;;;;;;1.67;0.00;;;;;;;18.14;100.00;99441.19;5086508;28;20036;-65
2023/10/21 10:17:00;;;;;;;2.60;0.10;;;;;;;18.18;100.00;99445.81;5088132;28;20027;-65
2023/10/21 10:19:39;;;;;;;1.88;0.00;;;;;;;18.20;100.00;99449.03;5084027;28;20032;-64
2023/10/21 10:22:17;;;;;;;1.08;0.10;;;;;;;18.15;100.00;99440.19;5086001;28;20368;-65
2023/10/21 10:24:56;;;;;;;4.40;0.20;;;;;;;18.11;100.00;99434.53;5086724;28;20028;-64
2023/10/21 10:27:42;;;;;;;0.13;0.00;;;;;;;18.06;100.00;99430.94;5084527;28;20435;-65
2023/10/21 10:30:19;;;;;;;1.85;0.00;;;;;;;18.09;100.00;99426.03;5083225;28;20039;-65
2023/10/21 10:32:47;;;;;;;1.95;0.10;;;;;;;18.16;100.00;99437.31;5085955;28;20032;-65
2023/10/21 10:35:31;;;;;;;0.25;0.00;;;;;;;18.17;100.00;99449.47;5067592;28;20118;-66
2023/10/21 10:37:59;;;;;;;1.40;0.10;;;;;;;18.22;100.00;99447.00;5086213;28;20028;-65
2023/10/21 10:40:35;;;;;;;2.20;0.15;;;;;;;18.23;100.00;99448.59;5082857;28;20036;-65
2023/10/21 10:43:01;;;;;;;2.38;0.20;;;;;;;18.21;100.00;99445.38;5084895;28;20036;-64
2023/10/21 10:45:26;;;;;;;0.85;0.10;;;;;;;18.21;100.00;99445.38;5084630;28;20030;-64
2023/10/21 10:48:00;;;;;;;1.27;0.10;;;;;;;18.15;100.00;99446.25;5081988;28;20581;-64
2023/10/21 10:50:26;;;;;;;0.68;0.15;;;;;;;18.22;100.00;99436.44;5081708;28;20028;-63
2023/10/21 10:52:53;;;;;;;0.47;0.20;;;;;;;18.21;100.00;99442.75;5075970;28;20085;-63
2023/10/21 10:55:19;;;;;;;1.15;0.10;;;;;;;18.12;100.00;99451.97;5082221;28;20115;-64
2023/10/21 10:57:44;;;;;;;0.40;0.20;;;;;;;18.13;100.00;99439.59;5072335;28;20214;-64
2023/10/21 11:00:13;;;;;;;0.40;0.08;;;;;;;18.17;100.00;99438.13;5078778;28;20111;-64
2023/10/21 11:02:42;;;;;;;3.85;0.10;;;;;;;18.17;100.00;99425.75;5079782;28;20126;-64
2023/10/21 11:05:08;;;;;;;0.75;0.10;;;;;;;18.19;100.00;99418.44;5080906;28;20029;-67
2023/10/21 11:07:35;;;;;;;1.13;0.10;;;;;;;18.24;100.00;99415.13;5072914;28;20502;-67
2023/10/21 11:10:06;;;;;;;0.52;0.00;;;;;;;18.30;100.00;99418.75;5073491;28;20041;-67
2023/10/21 11:12:32;;;;;;;0.17;0.00;;;;;;;18.33;100.00;99418.28;5071852;28;20032;-67
2023/10/21 11:15:00;;;;;;;0.95;0.05;;;;;;;18.35;100.00;99410.97;5074840;28;20030;-71
2023/10/21 11:17:26;;;;;;;1.02;0.10;;;;;;;18.46;100.00;99403.09;5077817;28;20102;-71
2023/10/21 11:19:51;;;;;;;0.75;0.10;;;;;;;18.77;100.00;99396.06;5082612;28;20460;-72
2023/10/21 11:22:21;;;;;;;1.38;0.10;;;;;;;18.81;100.00;99392.75;5092595;28;20104;-72
2023/10/21 11:24:47;;;;;;;1.30;0.08;;;;;;;18.88;100.00;99398.75;5081154;28;20483;-72